Time;durP1;ratioP1;P1;durP2;ratioP2;P2;SDS_P1;SDS_P2;PMS_P1;PMS_P2;Temp;Humidity;BMP_temperature;BMP_pressure;BME280_temperature;BME280_humidity;BME280_pressure;Samples;Min_cycle;Max_cycle;Signal;HPM_P1;HPM_P2
2021/04/05 00:00:38;;;;;;;17.83;10.27;;;23.00;30.40;;;;;;5048553;28;20108;-73
2021/04/05 00:03:04;;;;;;;17.50;10.18;;;23.00;29.90;;;;;;5071111;28;20170;-72
2021/04/05 00:05:37;;;;;;;20.33;9.70;;;23.00;29.90;;;;;;5065256;28;20024;-73
2021/04/05 00:08:03;;;;;;;19.10;9.57;;;22.90;29.90;;;;;;5070556;28;20082;-73
2021/04/05 00:10:42;;;;;;;21.92;10.13;;;22.90;30.00;;;;;;5064017;28;20498;-72
2021/04/05 00:13:12;;;;;;;19.45;9.63;;;22.90;30.00;;;;;;5074620;28;20400;-73
2021/04/05 00:15:37;;;;;;;19.05;9.40;;;22.90;30.00;;;;;;5079652;28;20029;-73
2021/04/05 00:18:03;;;;;;;15.43;9.18;;;22.90;30.00;;;;;;5054345;28;20455;-73
2021/04/05 00:20:34;;;;;;;19.77;10.50;;;22.90;30.00;;;;;;5074248;28;20055;-72
2021/04/05 00:23:00;;;;;;;17.52;8.73;;;22.90;30.00;;;;;;5051662;28;20024;-72
2021/04/05 00:25:26;;;;;;;6.80;3.70;;;22.80;30.10;;;;;;5064370;28;20393;-72
2021/04/05 00:27:52;;;;;;;18.65;8.77;;;22.80;30.10;;;;;;5072478;28;20096;-72
2021/04/05 00:30:20;;;;;;;15.48;9.02;;;22.80;30.20;;;;;;5047949;28;20571;-71
2021/04/05 00:32:46;;;;;;;16.48;7.97;;;22.80;30.30;;;;;;5064817;28;20115;-72
2021/04/05 00:35:23;;;;;;;21.10;9.25;;;22.80;30.30;;;;;;5056941;28;20044;-72
2021/04/05 00:37:49;;;;;;;14.88;7.28;;;22.80;30.30;;;;;;5035742;28;20040;-72
2021/04/05 00:40:15;;;;;;;21.27;8.90;;;22.70;30.30;;;;;;5043733;28;20501;-72
2021/04/05 00:42:42;;;;;;;20.70;9.93;;;22.70;30.30;;;;;;5069005;28;20056;-75
2021/04/05 00:45:08;;;;;;;18.65;7.80;;;22.70;30.40;;;;;;5047777;28;20081;-75
2021/04/05 00:47:36;;;;;;;19.77;9.43;;;22.70;30.50;;;;;;5070731;28;20029;-76
2021/04/05 00:50:08;;;;;;;18.60;9.60;;;22.70;30.40;;;;;;5075779;28;20097;-76
2021/04/05 00:52:33;;;;;;;16.67;7.47;;;22.60;30.40;;;;;;5077591;28;20086;-76
2021/04/05 00:54:59;;;;;;;19.83;9.57;;;22.60;30.60;;;;;;5089880;28;20107;-75
2021/04/05 00:57:24;;;;;;;22.75;9.82;;;22.60;30.50;;;;;;5054029;28;20028;-72
2021/04/05 00:59:50;;;;;;;18.05;9.48;;;22.60;30.50;;;;;;5054395;28;20013;-73
2021/04/05 01:02:16;;;;;;;13.10;7.10;;;22.60;31.30;;;;;;5075926;28;20504;-73
2021/04/05 01:04:41;;;;;;;15.20;8.02;;;22.60;30.60;;;;;;5052158;28;20017;-73
2021/04/05 01:07:07;;;;;;;20.10;8.52;;;22.50;30.60;;;;;;5055708;28;20095;-72
2021/04/05 01:12:54;;;;;;;13.13;6.03;;;22.50;30.60;;;;;;5064270;28;20078;-72
2021/04/05 01:15:20;;;;;;;16.88;8.10;;;22.50;30.60;;;;;;5073028;28;20025;-73
2021/04/05 01:17:47;;;;;;;12.00;6.47;;;22.40;30.60;;;;;;5070947;28;20116;-73
2021/04/05 01:20:16;;;;;;;20.15;7.40;;;22.40;30.70;;;;;;5084895;28;20029;-73
2021/04/05 01:22:42;;;;;;;11.35;6.38;;;22.40;30.70;;;;;;5049767;28;20510;-73
2021/04/05 01:25:09;;;;;;;13.88;6.63;;;22.40;30.60;;;;;;5058956;28;20025;-73
2021/04/05 01:27:35;;;;;;;16.88;6.57;;;22.40;30.70;;;;;;5080185;28;20029;-73
2021/04/05 01:30:01;;;;;;;17.00;6.63;;;22.40;30.60;;;;;;5086583;28;20090;-73
2021/04/05 01:32:27;;;;;;;13.13;6.78;;;22.40;30.70;;;;;;5054238;28;20023;-73
2021/04/05 01:34:52;;;;;;;16.05;5.95;;;22.40;30.70;;;;;;5066230;28;20420;-73
2021/04/05 01:37:18;;;;;;;14.63;6.25;;;22.40;30.80;;;;;;5065821;28;20041;-75
2021/04/05 01:39:43;;;;;;;11.73;6.30;;;22.40;30.80;;;;;;5081335;28;20029;-76
2021/04/05 01:42:09;;;;;;;13.73;5.95;;;22.40;30.70;;;;;;5073442;28;20127;-76
2021/04/05 01:44:35;;;;;;;15.32;6.45;;;22.40;30.80;;;;;;5065947;28;20403;-75
2021/04/05 01:47:01;;;;;;;13.25;6.57;;;22.40;30.80;;;;;;5037633;28;20025;-76
2021/04/05 01:49:27;;;;;;;5.22;2.85;;;22.40;30.80;;;;;;5078010;28;20536;-76
2021/04/05 01:51:53;;;;;;;13.43;5.55;;;22.40;30.80;;;;;;5051714;28;20047;-76
2021/04/05 01:54:19;;;;;;;9.65;4.47;;;22.40;30.70;;;;;;5070213;28;20399;-75
2021/04/05 01:56:44;;;;;;;15.77;6.10;;;22.30;30.90;;;;;;5053177;28;20060;-76
2021/04/05 01:59:10;;;;;;;9.65;5.03;;;22.30;30.90;;;;;;5089456;28;20020;-76
2021/04/05 02:01:36;;;;;;;12.23;5.35;;;22.30;30.80;;;;;;5052355;28;20729;-76
2021/04/05 02:04:05;;;;;;;11.52;4.55;;;22.30;30.70;;;;;;5047571;28;20029;-76
2021/04/05 02:06:34;;;;;;;13.93;6.13;;;22.20;30.70;;;;;;5069662;28;20110;-76
2021/04/05 02:09:00;;;;;;;10.73;4.22;;;22.20;30.80;;;;;;5038361;28;20033;-77
2021/04/05 02:11:29;;;;;;;15.15;6.47;;;22.20;30.90;;;;;;5055292;28;20116;-78
2021/04/05 02:13:56;;;;;;;5.93;1.13;;;22.20;30.80;;;;;;5049350;28;20089;-77
2021/04/05 02:16:22;;;;;;;11.43;4.72;;;22.20;30.90;;;;;;5055025;28;20020;-77
2021/04/05 02:18:48;;;;;;;15.00;5.93;;;22.10;30.60;;;;;;5054643;28;20029;-77
2021/04/05 02:21:14;;;;;;;5.25;2.15;;;22.10;30.70;;;;;;5081023;28;20033;-77
2021/04/05 02:23:41;;;;;;;15.10;5.85;;;22.00;30.90;;;;;;5067408;28;20033;-77
2021/04/05 02:26:07;;;;;;;11.13;5.00;;;22.00;30.70;;;;;;5063600;28;20075;-77
2021/04/05 02:28:41;;;;;;;11.07;4.70;;;22.00;30.90;;;;;;5069715;28;20024;-76
2021/04/05 02:31:08;;;;;;;10.32;6.72;;;22.00;31.10;;;;;;5068116;28;20393;-76
2021/04/05 02:33:45;;;;;;;6.28;3.22;;;22.00;31.00;;;;;;5056746;28;20076;-76
2021/04/05 02:36:12;;;;;;;14.27;4.80;;;21.90;31.10;;;;;;5078924;28;20045;-78
2021/04/05 02:38:38;;;;;;;20.95;7.07;;;21.90;31.20;;;;;;5037369;28;20132;-78
2021/04/05 02:41:14;;;;;;;14.48;5.55;;;21.90;31.70;;;;;;5073436;28;20080;-78
2021/04/05 02:43:39;;;;;;;18.20;7.15;;;21.90;31.20;;;;;;5070676;28;20539;-77
2021/04/05 02:46:06;;;;;;;4.88;2.35;;;21.90;31.20;;;;;;5061834;28;20115;-72
2021/04/05 02:48:35;;;;;;;12.88;6.68;;;21.90;31.20;;;;;;5051623;28;20040;-72
2021/04/05 02:51:02;;;;;;;11.80;5.35;;;21.80;31.10;;;;;;5077919;28;20454;-73
2021/04/05 02:53:27;;;;;;;16.10;7.20;;;21.80;31.30;;;;;;5065273;28;20423;-73
2021/04/05 02:56:03;;;;;;;12.90;6.07;;;21.80;31.20;;;;;;5059578;28;20025;-73
2021/04/05 02:58:33;;;;;;;12.48;5.32;;;21.80;31.30;;;;;;5050911;28;20035;-72
2021/04/05 03:00:58;;;;;;;17.83;7.80;;;21.80;31.40;;;;;;5080641;28;20032;-72
2021/04/05 03:03:24;;;;;;;16.70;6.63;;;21.80;31.30;;;;;;5032467;28;20570;-72
2021/04/05 03:05:50;;;;;;;16.67;7.25;;;21.70;31.40;;;;;;5053825;28;20025;-73
2021/04/05 03:08:18;;;;;;;14.05;7.15;;;21.80;31.60;;;;;;5079396;28;20032;-72
2021/04/05 03:10:44;;;;;;;19.33;8.80;;;21.70;31.70;;;;;;5052545;28;20044;-72
2021/04/05 03:13:09;;;;;;;11.57;3.75;;;21.70;31.60;;;;;;5038096;28;20025;-72
2021/04/05 03:15:35;;;;;;;18.00;8.02;;;21.70;31.70;;;;;;5080542;28;20032;-73
2021/04/05 03:18:01;;;;;;;10.63;3.78;;;21.70;31.80;;;;;;5045594;28;20024;-72
2021/04/05 03:20:32;;;;;;;22.98;8.02;;;21.70;31.80;;;;;;5051463;28;20039;-72
2021/04/05 03:22:58;;;;;;;12.60;5.20;;;21.70;31.80;;;;;;5056901;28;20021;-72
2021/04/05 03:25:24;;;;;;;23.17;8.95;;;21.70;31.90;;;;;;5036874;28;20029;-73
2021/04/05 03:27:50;;;;;;;18.95;8.50;;;21.70;31.90;;;;;;5053862;28;20055;-72
2021/04/05 03:30:39;;;;;;;14.65;7.35;;;21.70;32.00;;;;;;5049384;28;20045;-72
2021/04/05 03:33:26;;;;;;;17.88;8.77;;;21.70;31.90;;;;;;5059392;28;20044;-73
2021/04/05 03:35:55;;;;;;;23.98;8.00;;;21.80;32.10;;;;;;5066856;28;20048;-73
2021/04/05 03:38:20;;;;;;;22.38;9.48;;;21.80;32.10;;;;;;5080546;28;20031;-73
2021/04/05 03:40:49;;;;;;;17.60;8.95;;;21.70;32.00;;;;;;5060121;28;20108;-74
2021/04/05 03:43:35;;;;;;;15.70;6.55;;;21.80;32.10;;;;;;5060604;28;20041;-74
2021/04/05 03:46:05;;;;;;;;;;;21.70;32.10;;;;;;5068806;28;20024;-78
2021/04/05 03:48:35;;;;;;;19.50;7.50;;;21.70;32.10;;;;;;5087615;28;19908;-77
2021/04/05 03:51:08;;;;;;;18.88;7.22;;;21.70;32.10;;;;;;5066334;28;20124;-77
2021/04/05 03:53:48;;;;;;;16.40;7.65;;;21.70;32.00;;;;;;5070144;28;20492;-78
2021/04/05 03:56:18;;;;;;;19.63;7.65;;;21.70;32.10;;;;;;5055409;28;20041;-71
2021/04/05 03:58:49;;;;;;;19.88;8.55;;;21.70;32.10;;;;;;5057767;28;20048;-71
2021/04/05 04:01:17;;;;;;;0.50;0.50;;;21.70;32.10;;;;;;5063562;28;20027;-71
2021/04/05 04:03:53;;;;;;;3.03;1.00;;;21.80;32.20;;;;;;5035957;28;20021;-71
2021/04/05 04:09:25;;;;;;;2.42;1.00;;;21.80;32.20;;;;;;5066986;28;20335;-71
2021/04/05 04:11:50;;;;;;;3.03;1.17;;;21.80;32.30;;;;;;5086062;28;20059;-71
2021/04/05 04:14:16;;;;;;;1.73;1.05;;;21.70;32.20;;;;;;5059687;28;20018;-71
2021/04/05 04:16:44;;;;;;;2.65;1.15;;;21.70;32.40;;;;;;5085952;28;20024;-71
2021/04/05 04:19:09;;;;;;;3.38;1.55;;;21.70;32.40;;;;;;5062334;28;20021;-71
2021/04/05 04:21:36;;;;;;;2.83;0.93;;;21.70;32.30;;;;;;5059262;28;20017;-71
2021/04/05 04:24:02;;;;;;;4.75;1.10;;;21.70;32.40;;;;;;5048705;28;20431;-71
2021/04/05 04:26:31;;;;;;;2.05;1.10;;;21.70;32.50;;;;;;5050447;28;20036;-71
2021/04/05 04:28:57;;;;;;;2.38;1.15;;;21.70;32.40;;;;;;5049995;28;20087;-71
2021/04/05 04:31:23;;;;;;;1.73;1.27;;;21.60;32.50;;;;;;5068564;28;20496;-72
2021/04/05 04:33:48;;;;;;;3.53;1.75;;;21.70;32.60;;;;;;5065925;28;20036;-71
2021/04/05 04:36:24;;;;;;;2.55;1.33;;;21.70;32.60;;;;;;5069792;28;20049;-71
2021/04/05 04:38:54;;;;;;;1.38;0.93;;;21.70;32.60;;;;;;5050310;28;20102;-71
2021/04/05 04:41:24;;;;;;;10.75;1.63;;;21.70;32.70;;;;;;5055020;28;20033;-71
2021/04/05 04:43:57;;;;;;;1.10;0.82;;;21.70;32.70;;;;;;5082335;28;20024;-73
2021/04/05 04:46:22;;;;;;;1.15;0.50;;;21.60;32.70;;;;;;5070694;28;20435;-73
2021/04/05 04:48:53;;;;;;;1.08;0.70;;;21.70;32.80;;;;;;5066190;28;20074;-72
2021/04/05 04:51:19;;;;;;;2.20;1.13;;;21.60;32.80;;;;;;5083847;28;20085;-72
2021/04/05 04:53:45;;;;;;;1.95;0.98;;;21.60;32.80;;;;;;5053170;28;20016;-72
2021/04/05 04:56:10;;;;;;;3.25;1.25;;;21.60;32.80;;;;;;5045101;28;20499;-72
2021/04/05 04:58:36;;;;;;;4.18;1.48;;;21.60;32.90;;;;;;5069019;28;20029;-72
2021/04/05 05:01:02;;;;;;;1.92;1.27;;;21.60;32.90;;;;;;5049750;28;20037;-73
2021/04/05 05:03:27;;;;;;;0.30;0.30;;;21.60;33.00;;;;;;5049685;28;20020;-73
2021/04/05 05:05:53;;;;;;;2.20;0.85;;;21.60;33.00;;;;;;5050757;28;20029;-72
2021/04/05 05:08:19;;;;;;;5.00;0.82;;;21.60;33.00;;;;;;5077798;28;20082;-72
2021/04/05 05:10:45;;;;;;;4.15;1.15;;;21.60;33.00;;;;;;5054963;28;20409;-72
2021/04/05 05:13:10;;;;;;;3.00;1.40;;;21.60;33.10;;;;;;5063219;28;20159;-72
2021/04/05 05:15:36;;;;;;;1.95;1.33;;;21.70;33.00;;;;;;5065101;28;20618;-71
2021/04/05 05:18:02;;;;;;;4.25;1.15;;;21.70;32.90;;;;;;5071324;28;20029;-72
2021/04/05 05:20:27;;;;;;;0.93;0.73;;;21.70;33.00;;;;;;5039528;28;20032;-72
2021/04/05 05:26:15;;;;;;;2.53;1.27;;;21.90;32.80;;;;;;5073978;28;20040;-72
2021/04/05 05:28:40;;;;;;;1.25;1.15;;;21.90;32.70;;;;;;5053202;28;20017;-72
2021/04/05 05:31:06;;;;;;;2.47;0.63;;;22.00;32.70;;;;;;5052326;28;20051;-72
2021/04/05 05:33:33;;;;;;;0.75;0.52;;;22.00;32.70;;;;;;5053972;28;20098;-71
2021/04/05 05:35:59;;;;;;;1.55;0.65;;;22.10;32.70;;;;;;5055112;28;20059;-71
2021/04/05 05:38:24;;;;;;;1.60;0.88;;;22.10;32.70;;;;;;5078791;28;20033;-77
2021/04/05 05:40:50;;;;;;;0.30;0.20;;;22.20;32.60;;;;;;5066656;28;20051;-76
2021/04/05 05:43:36;;;;;;;1.55;0.65;;;22.20;32.60;;;;;;5059738;28;20021;-78
2021/04/05 05:46:20;;;;;;;1.98;1.30;;;22.20;32.60;;;;;;5059058;28;20024;-77
2021/04/05 05:49:08;;;;;;;0.22;0.22;;;22.30;32.50;;;;;;5066421;28;20023;-76
2021/04/05 05:52:20;;;;;;;4.85;1.00;;;22.30;32.50;;;;;;5055417;28;20042;-76
2021/04/05 05:55:18;;;;;;;2.33;0.90;;;22.40;32.50;;;;;;5065510;28;20436;-77
2021/04/05 05:58:04;;;;;;;2.97;1.25;;;22.40;32.50;;;;;;5084609;28;20024;-75
2021/04/05 06:00:32;;;;;;;1.35;0.43;;;22.40;32.40;;;;;;5040523;28;20111;-75
2021/04/05 06:03:24;;;;;;;0.47;0.47;;;22.40;32.50;;;;;;5052054;28;20035;-74
2021/04/05 06:06:16;;;;;;;4.75;1.63;;;22.40;33.10;;;;;;5067431;28;20427;-72
2021/04/05 06:09:00;;;;;;;1.42;1.08;;;22.40;32.40;;;;;;5069073;28;20040;-72
2021/04/05 06:11:49;;;;;;;2.25;1.33;;;22.50;32.40;;;;;;5055819;28;20024;-75
2021/04/05 06:14:21;;;;;;;0.65;0.52;;;22.50;32.40;;;;;;5053871;28;20025;-75
2021/04/05 06:16:59;;;;;;;2.20;1.02;;;22.50;32.40;;;;;;5070906;28;20024;-75
2021/04/05 06:19:52;;;;;;;1.40;0.75;;;22.50;32.50;;;;;;5069640;28;20039;-75
2021/04/05 06:22:42;;;;;;;3.33;1.20;;;22.50;32.50;;;;;;5056518;28;20412;-77
2021/04/05 06:25:18;;;;;;;1.45;0.85;;;22.50;32.50;;;;;;5039695;28;20028;-77
2021/04/05 06:28:10;;;;;;;4.10;1.70;;;22.50;32.40;;;;;;5056266;28;20492;-77
2021/04/05 06:31:04;;;;;;;3.33;1.02;;;22.50;32.60;;;;;;5083014;28;20404;-77
2021/04/05 06:33:32;;;;;;;0.63;0.63;;;22.50;32.70;;;;;;5054296;28;20051;-77
2021/04/05 06:36:11;;;;;;;1.90;1.35;;;22.50;32.50;;;;;;5064375;28;20397;-74
2021/04/05 06:38:46;;;;;;;1.60;1.50;;;22.50;32.60;;;;;;5066693;28;20450;-76
2021/04/05 06:41:38;;;;;;;;;;;22.50;32.60;;;;;;5071276;28;20031;-77
2021/04/05 06:44:27;;;;;;;4.15;1.08;;;22.50;32.60;;;;;;5059406;28;20391;-72
2021/04/05 06:47:17;;;;;;;5.93;1.17;;;22.50;32.70;;;;;;5056227;28;20377;-72
2021/04/05 06:50:37;;;;;;;2.70;0.98;;;22.50;32.70;;;;;;5073344;28;20024;-72
2021/04/05 06:53:28;;;;;;;1.65;0.98;;;22.60;32.70;;;;;;5009478;28;20442;-71
2021/04/05 06:55:57;;;;;;;1.98;1.33;;;22.60;32.50;;;;;;4993076;28;20038;-71
2021/04/05 06:58:26;;;;;;;3.67;1.30;;;22.70;32.40;;;;;;5007826;28;20041;-71
2021/04/05 07:01:04;;;;;;;4.80;1.80;;;22.70;32.30;;;;;;5009145;28;20042;-71
2021/04/05 07:04:07;;;;;;;3.80;1.00;;;22.70;32.30;;;;;;4989946;28;20034;-72
2021/04/05 07:06:49;;;;;;;0.73;0.73;;;22.80;32.30;;;;;;5001216;28;20053;-71
2021/04/05 07:09:32;;;;;;;2.08;1.20;;;22.80;32.30;;;;;;5018119;28;20117;-71
2021/04/05 07:12:27;;;;;;;3.33;0.88;;;22.80;32.20;;;;;;5009938;28;20388;-72
2021/04/05 07:15:23;;;;;;;2.20;1.02;;;22.90;32.20;;;;;;5003491;28;20225;-72
2021/04/05 07:18:00;;;;;;;4.53;1.00;;;22.90;32.10;;;;;;4986852;28;20572;-73
2021/04/05 07:20:55;;;;;;;1.50;1.05;;;23.00;32.00;;;;;;5006924;28;20042;-72
2021/04/05 07:23:32;;;;;;;1.73;0.80;;;23.00;31.90;;;;;;4995851;28;20042;-72
2021/04/05 07:26:14;;;;;;;2.22;1.25;;;23.00;31.80;;;;;;5012413;28;20037;-72
2021/04/05 07:28:51;;;;;;;1.80;0.50;;;23.00;31.80;;;;;;5054145;28;20025;-73
2021/04/05 07:31:39;;;;;;;1.42;1.00;;;23.10;31.80;;;;;;5064510;28;20491;-73
2021/04/05 07:34:32;;;;;;;3.25;1.45;;;23.00;31.70;;;;;;5050905;28;20085;-72
2021/04/05 07:37:10;;;;;;;2.45;1.52;;;23.00;31.80;;;;;;5063444;28;20055;-72
2021/04/05 07:39:41;;;;;;;3.35;1.20;;;23.10;31.80;;;;;;5069692;28;20036;-72
2021/04/05 07:45:32;;;;;;;1.45;0.95;;;23.00;31.70;;;;;;5068002;28;20112;-71
2021/04/05 07:48:09;;;;;;;4.10;1.90;;;23.00;31.80;;;;;;5074056;28;20035;-70
2021/04/05 07:50:37;;;;;;;0.50;0.50;;;23.00;31.90;;;;;;5066777;28;20056;-70
2021/04/05 07:53:21;;;;;;;2.72;0.90;;;23.00;32.00;;;;;;5043757;28;20067;-71
2021/04/05 07:55:47;;;;;;;2.88;1.13;;;23.00;32.10;;;;;;5037068;28;20081;-70
2021/04/05 07:58:30;;;;;;;4.82;1.60;;;23.00;32.10;;;;;;5078435;28;20032;-70
2021/04/05 08:01:17;;;;;;;4.72;1.50;;;22.90;32.10;;;;;;5056156;28;20405;-70
2021/04/05 08:04:12;;;;;;;0.98;0.80;;;22.90;32.20;;;;;;5067289;28;20028;-70
2021/04/05 08:06:47;;;;;;;1.85;1.02;;;22.90;32.30;;;;;;5076875;28;20032;-70
2021/04/05 08:09:12;;;;;;;1.33;0.80;;;22.90;32.40;;;;;;5072064;28;20032;-70
2021/04/05 08:11:38;;;;;;;0.80;0.55;;;22.80;32.40;;;;;;5057215;28;20127;-70
2021/04/05 08:14:28;;;;;;;3.55;1.15;;;22.80;32.40;;;;;;5070159;28;20028;-70
2021/04/05 08:17:07;;;;;;;3.10;0.47;;;22.80;32.50;;;;;;5054924;28;20138;-72
2021/04/05 08:19:45;;;;;;;1.13;1.02;;;22.80;32.40;;;;;;5039044;28;20143;-72
2021/04/05 08:22:28;;;;;;;1.70;0.90;;;22.80;32.40;;;;;;5078474;28;20048;-72
2021/04/05 08:25:05;;;;;;;1.13;0.63;;;22.80;32.50;;;;;;5052113;28;20484;-72
2021/04/05 08:27:50;;;;;;;0.63;0.50;;;22.70;32.50;;;;;;5070981;28;20035;-72
2021/04/05 08:30:42;;;;;;;1.30;0.50;;;22.70;32.50;;;;;;5058813;28;20107;-72
2021/04/05 08:33:40;;;;;;;0.57;0.55;;;22.70;32.50;;;;;;5077980;28;20075;-72
2021/04/05 08:36:28;;;;;;;3.60;0.70;;;22.70;32.60;;;;;;5079216;28;20048;-71
2021/04/05 08:39:19;;;;;;;3.10;0.90;;;22.70;32.60;;;;;;5082993;28;20033;-72
2021/04/05 08:41:54;;;;;;;1.73;1.10;;;22.60;32.60;;;;;;5063872;28;20507;-71
2021/04/05 08:44:39;;;;;;;1.48;0.90;;;22.60;32.70;;;;;;5070592;28;20498;-73
2021/04/05 08:47:08;;;;;;;2.47;1.03;;;22.50;32.70;;;;;;5046810;28;20086;-70
2021/04/05 08:49:33;;;;;;;0.77;0.40;;;22.50;32.70;;;;;;5064865;28;20082;-69
2021/04/05 08:52:05;;;;;;;1.48;0.50;;;22.50;32.80;;;;;;5040782;28;20044;-70
2021/04/05 08:54:53;;;;;;;0.65;0.50;;;22.50;32.80;;;;;;5057370;28;20441;-70
2021/04/05 08:57:34;;;;;;;1.85;0.75;;;22.50;32.80;;;;;;5064300;28;20041;-71
2021/04/05 09:00:08;;;;;;;0.77;0.60;;;22.50;32.80;;;;;;5056794;28;20438;-74
2021/04/05 09:02:38;;;;;;;1.08;0.82;;;22.50;32.80;;;;;;5044461;28;20448;-74
2021/04/05 09:05:15;;;;;;;1.30;0.70;;;22.40;32.80;;;;;;5063557;28;20095;-70
2021/04/05 09:07:43;;;;;;;0.95;0.70;;;22.40;32.80;;;;;;5045915;28;20452;-72
2021/04/05 09:10:10;;;;;;;3.03;0.82;;;22.40;32.80;;;;;;5066414;28;20151;-71
2021/04/05 09:12:37;;;;;;;0.95;0.50;;;22.40;32.90;;;;;;5038473;28;20040;-70
2021/04/05 09:15:14;;;;;;;1.50;0.50;;;22.50;32.80;;;;;;5067060;28;20040;-71
2021/04/05 09:18:05;;;;;;;0.80;0.50;;;22.50;32.70;;;;;;5073368;28;20500;-72
2021/04/05 09:20:38;;;;;;;0.63;0.63;;;22.50;32.70;;;;;;5079801;28;20031;-72
2021/04/05 09:23:34;;;;;;;0.43;0.40;;;22.60;32.70;;;;;;5056610;28;20029;-72
2021/04/05 09:26:17;;;;;;;0.95;0.45;;;22.60;32.50;;;;;;5071390;28;20025;-73
2021/04/05 09:28:56;;;;;;;1.65;0.90;;;22.60;32.40;;;;;;5064951;28;20029;-72
2021/04/05 09:31:32;;;;;;;1.40;0.60;;;22.60;32.40;;;;;;5054580;28;20042;-72
2021/04/05 09:34:21;;;;;;;0.50;0.40;;;22.60;32.40;;;;;;5090530;28;20035;-72
2021/04/05 09:36:52;;;;;;;1.40;0.60;;;22.60;32.30;;;;;;5054819;28;20488;-72
2021/04/05 09:39:47;;;;;;;0.65;0.57;;;22.60;32.30;;;;;;5066723;28;20032;-72
2021/04/05 09:43:11;;;;;;;1.00;0.28;;;22.60;32.30;;;;;;5059978;28;20025;-72
2021/04/05 09:45:51;;;;;;;0.98;0.45;;;22.60;32.30;;;;;;4950937;28;20088;-72
2021/04/05 09:48:21;;;;;;;1.83;0.63;;;22.50;32.30;;;;;;4973075;28;20070;-72
2021/04/05 09:51:07;;;;;;;0.38;0.38;;;22.60;32.40;;;;;;4972298;28;20039;-72
2021/04/05 09:53:48;;;;;;;1.98;0.40;;;22.50;32.40;;;;;;4975775;28;20051;-72
2021/04/05 09:56:15;;;;;;;2.17;0.70;;;22.50;32.40;;;;;;4988380;28;20048;-72
2021/04/05 09:58:43;;;;;;;1.83;0.50;;;22.50;32.30;;;;;;4974047;28;20034;-72
2021/04/05 10:01:10;;;;;;;5.88;1.90;;;22.50;32.30;;;;;;4976412;28;20153;-72
2021/04/05 10:03:43;;;;;;;6.00;1.65;;;22.50;32.30;;;;;;4990069;28;20034;-70
2021/04/05 10:06:12;;;;;;;1.10;0.35;;;22.40;32.20;;;;;;4978889;28;20102;-72
2021/04/05 10:08:38;;;;;;;0.70;0.38;;;22.40;32.30;;;;;;4990650;28;20077;-72
2021/04/05 10:11:03;;;;;;;1.67;0.60;;;22.50;32.30;;;;;;4966273;28;20480;-72
2021/04/05 10:13:29;;;;;;;2.22;0.60;;;22.40;32.30;;;;;;4984615;28;20038;-72
2021/04/05 10:15:56;;;;;;;0.75;0.47;;;22.40;32.30;;;;;;4973961;28;20073;-72
2021/04/05 10:18:22;;;;;;;0.50;0.32;;;22.40;32.10;;;;;;4973824;28;20038;-72
2021/04/05 10:20:51;;;;;;;1.02;0.40;;;22.40;32.00;;;;;;4947917;28;20026;-72
2021/04/05 10:23:22;;;;;;;1.85;0.77;;;22.40;32.00;;;;;;5053403;28;20021;-72
2021/04/05 10:26:01;;;;;;;0.20;0.13;;;22.40;32.00;;;;;;5051695;28;20017;-72
2021/04/05 10:28:31;;;;;;;0.40;0.32;;;22.40;32.00;;;;;;5049469;28;20032;-72
2021/04/05 10:30:59;;;;;;;2.67;0.68;;;22.40;32.00;;;;;;5059382;28;20180;-72
2021/04/05 10:33:41;;;;;;;5.35;0.77;;;22.40;32.00;;;;;;5082994;28;20041;-73
2021/04/05 10:36:08;;;;;;;1.13;0.57;;;22.40;32.60;;;;;;5057916;28;20416;-74
2021/04/05 10:38:37;;;;;;;3.30;0.43;;;22.30;31.80;;;;;;5069399;28;20072;-73
2021/04/05 10:41:05;;;;;;;0.68;0.68;;;22.30;31.80;;;;;;5052577;28;20119;-72
2021/04/05 10:43:53;;;;;;;0.28;0.28;;;22.30;31.70;;;;;;5070186;28;20040;-72
2021/04/05 10:46:27;;;;;;;0.45;0.45;;;22.30;31.70;;;;;;5038301;28;20561;-72
2021/04/05 10:49:14;;;;;;;0.73;0.52;;;22.30;31.70;;;;;;5057882;28;20178;-72
2021/04/05 10:52:06;;;;;;;1.98;1.10;;;22.30;31.70;;;;;;5043162;28;20094;-72
2021/04/05 10:54:43;;;;;;;2.00;0.52;;;22.40;31.60;;;;;;5059499;28;20109;-72
2021/04/05 10:57:16;;;;;;;1.38;0.50;;;22.40;31.30;;;;;;5064037;28;20056;-72
2021/04/05 10:59:48;;;;;;;1.65;0.55;;;22.60;31.40;;;;;;5021568;28;20021;-72
2021/04/05 11:02:36;;;;;;;0.77;0.57;;;22.60;31.20;;;;;;5059629;28;20021;-72
2021/04/05 11:05:12;;;;;;;0.95;0.55;;;22.70;31.00;;;;;;5066202;28;20052;-71
2021/04/05 11:07:40;;;;;;;1.67;0.47;;;22.80;30.70;;;;;;5054006;28;20029;-72
2021/04/05 11:10:07;;;;;;;1.27;0.25;;;22.90;30.80;;;;;;5053282;28;20041;-71
2021/04/05 11:12:37;;;;;;;0.38;0.35;;;22.90;30.60;;;;;;5040717;28;20130;-72
2021/04/05 11:15:05;;;;;;;3.05;0.57;;;22.90;30.50;;;;;;5051022;28;20028;-72
2021/04/05 11:17:30;;;;;;;0.30;0.30;;;22.90;30.40;;;;;;5037186;28;20029;-72
2021/04/05 11:19:56;;;;;;;1.35;0.43;;;22.90;30.50;;;;;;5052132;28;20582;-72
2021/04/05 11:25:46;;;;;;;2.65;0.50;;;22.90;30.50;;;;;;5065334;28;20031;-72
2021/04/05 11:28:33;;;;;;;0.82;0.45;;;22.90;30.50;;;;;;5067838;28;20075;-72
2021/04/05 11:31:16;;;;;;;0.65;0.30;;;22.90;30.50;;;;;;5045737;28;20280;-72
2021/04/05 11:33:52;;;;;;;0.60;0.40;;;22.90;30.40;;;;;;5060364;28;20035;-72
2021/04/05 11:36:17;;;;;;;2.15;0.70;;;22.90;30.40;;;;;;5049031;28;20058;-72
2021/04/05 11:38:48;;;;;;;0.60;0.40;;;22.80;30.40;;;;;;5082146;28;20103;-72
2021/04/05 11:41:15;;;;;;;2.88;0.52;;;22.70;30.20;;;;;;5048391;28;20430;-72
2021/04/05 11:43:43;;;;;;;0.40;0.40;;;22.70;30.30;;;;;;5050055;28;20480;-72
2021/04/05 11:46:10;;;;;;;0.43;0.22;;;22.70;30.20;;;;;;5016993;28;20125;-72
2021/04/05 11:48:36;;;;;;;1.23;0.43;;;22.70;30.20;;;;;;5056390;28;20031;-72
2021/04/05 11:51:02;;;;;;;0.93;0.40;;;22.70;30.90;;;;;;5069468;28;20466;-72
2021/04/05 11:53:48;;;;;;;0.88;0.43;;;22.70;30.10;;;;;;5053057;28;20028;-72
2021/04/05 11:56:16;;;;;;;0.52;0.32;;;22.80;30.00;;;;;;5079583;28;20083;-72
2021/04/05 11:58:51;;;;;;;4.22;0.40;;;22.70;30.00;;;;;;5064539;28;20475;-72
2021/04/05 12:01:25;;;;;;;0.32;0.30;;;22.80;30.00;;;;;;5066786;28;20056;-72
2021/04/05 12:03:52;;;;;;;0.95;0.68;;;22.80;29.80;;;;;;5058289;28;20377;-72
2021/04/05 12:06:35;;;;;;;1.35;0.50;;;22.80;29.80;;;;;;5081902;28;20044;-72
2021/04/05 12:09:03;;;;;;;0.95;0.30;;;22.90;29.80;;;;;;5042146;28;20025;-71
2021/04/05 12:11:30;;;;;;;0.17;0.15;;;22.90;29.70;;;;;;5044045;28;20044;-69
2021/04/05 12:13:59;;;;;;;1.48;0.20;;;22.90;29.70;;;;;;5058974;28;20020;-70
2021/04/05 12:16:26;;;;;;;0.40;0.40;;;22.90;29.60;;;;;;5040702;28;20124;-71
2021/04/05 12:18:56;;;;;;;3.85;0.50;;;22.90;29.60;;;;;;5057920;28;20036;-70
2021/04/05 12:21:29;;;;;;;3.53;0.43;;;22.80;29.50;;;;;;5057561;28;20392;-70
2021/04/05 12:24:00;;;;;;;2.13;0.30;;;22.80;29.60;;;;;;5055977;28;20074;-70
2021/04/05 12:26:26;;;;;;;1.75;0.35;;;22.80;29.50;;;;;;5046729;28;20567;-71
2021/04/05 12:28:53;;;;;;;0.35;0.13;;;22.70;29.50;;;;;;5077323;28;20021;-71
2021/04/05 12:31:22;;;;;;;0.50;0.40;;;22.70;29.50;;;;;;5060195;28;20412;-71
2021/04/05 12:33:47;;;;;;;0.40;0.28;;;22.70;29.60;;;;;;5072701;28;20048;-72
2021/04/05 12:36:13;;;;;;;0.60;0.40;;;22.70;29.60;;;;;;5051144;28;20078;-72
2021/04/05 12:38:39;;;;;;;0.40;0.40;;;22.60;29.60;;;;;;5053370;28;20043;-71
2021/04/05 12:41:06;;;;;;;0.20;0.20;;;22.60;29.60;;;;;;5081657;28;20507;-71
2021/04/05 12:43:34;;;;;;;0.38;0.20;;;22.60;30.00;;;;;;5054259;28;20464;-71
2021/04/05 12:49:25;;;;;;;1.35;0.55;;;22.70;29.60;;;;;;5071843;28;20031;-72
2021/04/05 12:51:53;;;;;;;0.20;0.20;;;22.80;29.50;;;;;;5055169;28;20403;-72
2021/04/05 12:54:20;;;;;;;0.73;0.40;;;22.90;29.30;;;;;;5053920;28;20033;-73
2021/04/05 12:56:53;;;;;;;0.38;0.32;;;22.90;29.20;;;;;;5059296;28;20025;-71
2021/04/05 12:59:26;;;;;;;0.93;0.30;;;22.90;29.00;;;;;;5072090;28;20119;-77
2021/04/05 13:02:18;;;;;;;2.95;0.73;;;22.90;29.00;;;;;;5083206;28;20010;-74
2021/04/05 13:05:02;;;;;;;3.17;0.75;;;23.00;29.00;;;;;;5010533;28;20517;-72
2021/04/05 13:07:30;;;;;;;6.53;0.57;;;22.90;29.40;;;;;;5011189;28;20211;-71
2021/04/05 13:09:58;;;;;;;1.73;0.43;;;22.90;28.80;;;;;;5019095;28;20049;-71
2021/04/05 13:12:25;;;;;;;1.83;0.30;;;22.90;28.80;;;;;;5010697;28;20494;-71
2021/04/05 13:14:54;;;;;;;0.63;0.30;;;22.90;28.90;;;;;;5010282;28;20037;-71
2021/04/05 13:17:22;;;;;;;2.95;0.40;;;22.90;28.70;;;;;;5011662;28;20094;-71
2021/04/05 13:19:53;;;;;;;0.68;0.45;;;22.90;28.70;;;;;;5004772;28;20034;-71
2021/04/05 13:22:20;;;;;;;1.48;0.57;;;22.90;28.60;;;;;;4977201;28;20031;-71
2021/04/05 13:24:49;;;;;;;2.38;0.50;;;23.00;28.60;;;;;;4975638;28;20022;-71
2021/04/05 13:27:21;;;;;;;3.85;0.45;;;23.10;28.50;;;;;;4980417;28;20516;-71
2021/04/05 13:29:48;;;;;;;1.10;0.50;;;23.20;28.30;;;;;;5004304;28;20042;-71
2021/04/05 13:32:14;;;;;;;1.75;0.35;;;23.30;28.10;;;;;;5006236;28;20041;-70
2021/04/05 13:34:40;;;;;;;1.65;0.45;;;23.40;27.90;;;;;;5001173;28;20046;-71